createdAt,value
2022-11-05T00:01:51.400Z,7.60
2022-11-05T00:04:37.612Z,7.60
2022-11-05T00:07:29.264Z,7.60
2022-11-05T00:10:01.619Z,7.60
2022-11-05T00:12:47.370Z,7.70
2022-11-05T00:15:35.079Z,7.70
2022-11-05T00:18:03.229Z,7.80
2022-11-05T00:20:31.649Z,7.90
2022-11-05T00:23:19.364Z,7.90
2022-11-05T00:25:55.886Z,7.80
2022-11-05T00:28:24.290Z,7.80
2022-11-05T00:30:54.433Z,7.80
2022-11-05T00:33:22.746Z,7.80
2022-11-05T00:35:51.005Z,7.80
2022-11-05T00:38:19.359Z,7.80
2022-11-05T00:40:47.650Z,7.80
2022-11-05T00:43:33.828Z,8.00
2022-11-05T00:46:03.520Z,8.00
2022-11-05T00:48:49.100Z,8.00
2022-11-05T00:51:17.377Z,8.10
2022-11-05T00:53:45.723Z,8.20
2022-11-05T00:56:14.072Z,8.20
2022-11-05T00:58:42.368Z,8.30
2022-11-05T01:01:12.676Z,8.30
2022-11-05T01:03:41.564Z,8.30
2022-11-05T01:06:12.772Z,8.40
2022-11-05T01:08:42.543Z,8.40
2022-11-05T01:11:12.723Z,8.40
2022-11-05T01:13:41.504Z,8.40
2022-11-05T01:16:12.632Z,8.40
2022-11-05T01:18:40.871Z,8.40
2022-11-05T01:21:13.829Z,8.40
2022-11-05T01:23:42.130Z,8.50
2022-11-05T01:26:10.602Z,8.50
2022-11-05T01:28:38.955Z,8.50
2022-11-05T01:31:07.561Z,8.50
2022-11-05T01:33:37.164Z,8.50
2022-11-05T01:36:06.582Z,8.60
2022-11-05T01:38:34.862Z,8.50
2022-11-05T01:41:03.146Z,8.50
2022-11-05T01:43:47.148Z,8.50
2022-11-05T01:46:17.161Z,8.40
2022-11-05T01:48:49.070Z,8.40
2022-11-05T01:51:20.319Z,8.20
2022-11-05T01:53:51.250Z,8.10
2022-11-05T01:56:25.786Z,8.10
2022-11-05T01:58:57.802Z,8.00
2022-11-05T02:01:26.454Z,7.90
2022-11-05T02:04:02.402Z,7.80
2022-11-05T02:06:35.903Z,7.70
2022-11-05T02:09:08.194Z,7.70
2022-11-05T02:11:36.676Z,7.60
2022-11-05T02:14:05.462Z,7.50
2022-11-05T02:16:40.057Z,7.50
2022-11-05T02:19:28.555Z,7.40
2022-11-05T02:22:30.732Z,7.30
2022-11-05T02:25:09.318Z,7.30
2022-11-05T02:27:59.926Z,7.40
2022-11-05T02:30:38.290Z,7.30
2022-11-05T02:33:32.494Z,7.30
2022-11-05T02:36:16.010Z,7.30
2022-11-05T02:38:54.230Z,7.20
2022-11-05T02:41:31.264Z,7.20
2022-11-05T02:44:09.631Z,7.20
2022-11-05T02:46:48.222Z,7.10
2022-11-05T02:49:27.235Z,7.10
2022-11-05T02:51:59.149Z,7.10
2022-11-05T02:54:34.337Z,7.00
2022-11-05T02:57:04.780Z,6.90
2022-11-05T02:59:33.186Z,6.90
2022-11-05T03:02:04.293Z,6.90
2022-11-05T03:04:33.202Z,6.80
2022-11-05T03:07:11.171Z,6.70
2022-11-05T03:10:07.737Z,6.70
2022-11-05T03:12:46.091Z,6.60
2022-11-05T03:15:31.279Z,6.60
2022-11-05T03:18:07.853Z,6.50
2022-11-05T03:20:40.767Z,6.50
2022-11-05T03:23:14.191Z,6.30
2022-11-05T03:25:48.359Z,6.40
2022-11-05T03:28:19.422Z,6.40
2022-11-05T03:30:50.209Z,6.30
2022-11-05T03:33:25.631Z,6.30
2022-11-05T03:35:56.586Z,6.30
2022-11-05T03:38:32.119Z,6.20
2022-11-05T03:41:04.803Z,6.20
2022-11-05T03:43:38.073Z,6.20
2022-11-05T03:46:10.515Z,6.20
2022-11-05T03:48:45.256Z,6.10
2022-11-05T03:51:19.694Z,6.10
2022-11-05T03:53:51.181Z,6.10
2022-11-05T03:56:24.114Z,6.10
2022-11-05T03:58:58.534Z,6.00
2022-11-05T04:01:28.380Z,6.00
2022-11-05T04:03:58.107Z,6.00
2022-11-05T04:06:43.976Z,6.00
2022-11-05T04:09:30.097Z,5.90
2022-11-05T04:12:15.864Z,5.90
2022-11-05T04:14:44.166Z,5.90
2022-11-05T04:17:11.422Z,5.80
2022-11-05T04:20:00.002Z,5.80
2022-11-05T04:22:49.285Z,5.80
2022-11-05T04:25:18.810Z,5.70
2022-11-05T04:27:47.367Z,5.70
2022-11-05T04:30:19.701Z,5.60
2022-11-05T04:33:01.935Z,5.60
2022-11-05T04:35:32.900Z,5.60
2022-11-05T04:38:01.350Z,5.50
2022-11-05T04:40:29.781Z,5.50
2022-11-05T04:42:58.496Z,5.50
2022-11-05T04:45:29.067Z,5.50
2022-11-05T04:47:57.327Z,5.50
2022-11-05T04:50:25.771Z,5.40
2022-11-05T04:52:55.397Z,5.40
2022-11-05T04:55:23.799Z,5.30
2022-11-05T04:57:53.013Z,5.30
2022-11-05T05:00:22.835Z,5.30
2022-11-05T05:02:51.323Z,5.30
2022-11-05T05:05:19.626Z,5.20
2022-11-05T05:07:48.926Z,5.20
2022-11-05T05:10:18.652Z,5.20
2022-11-05T05:12:46.904Z,5.10
2022-11-05T05:15:16.357Z,5.20
2022-11-05T05:17:44.581Z,5.20
2022-11-05T05:20:30.493Z,5.20
2022-11-05T05:22:58.718Z,5.10
2022-11-05T05:25:28.392Z,5.20
2022-11-05T05:27:58.657Z,5.10
2022-11-05T05:30:27.264Z,5.10
2022-11-05T05:32:55.467Z,5.00
2022-11-05T05:35:24.733Z,5.10
2022-11-05T05:37:56.695Z,5.00
2022-11-05T05:40:25.149Z,5.00
2022-11-05T05:42:56.347Z,5.00
2022-11-05T05:45:24.624Z,5.00
2022-11-05T05:47:52.896Z,5.00
2022-11-05T05:50:21.172Z,4.90
2022-11-05T05:52:53.428Z,4.90
2022-11-05T05:55:21.907Z,4.90
2022-11-05T05:57:50.235Z,4.90
2022-11-05T06:00:19.971Z,4.90
2022-11-05T06:02:48.275Z,4.80
2022-11-05T06:05:16.697Z,4.80
2022-11-05T06:07:45.989Z,4.80
2022-11-05T06:10:15.604Z,4.80
2022-11-05T06:12:43.937Z,4.70
2022-11-05T06:15:12.297Z,4.80
2022-11-05T06:17:43.767Z,4.80
2022-11-05T06:20:12.699Z,4.90
2022-11-05T06:22:40.995Z,4.80
2022-11-05T06:25:10.254Z,4.70
2022-11-05T06:27:38.389Z,4.80
2022-11-05T06:30:07.617Z,4.80
2022-11-05T06:32:35.886Z,4.80
2022-11-05T06:35:05.872Z,4.80
2022-11-05T06:37:34.455Z,4.80
2022-11-05T06:40:02.801Z,4.90
2022-11-05T06:42:31.009Z,4.90
2022-11-05T06:44:59.246Z,4.90
2022-11-05T06:47:27.500Z,5.00
2022-11-05T06:49:57.285Z,5.00
2022-11-05T06:52:31.135Z,5.00
2022-11-05T06:54:59.546Z,5.00
2022-11-05T06:57:27.840Z,5.00
2022-11-05T07:00:00.747Z,5.10
2022-11-05T07:02:31.604Z,5.10
2022-11-05T07:04:59.788Z,5.20
2022-11-05T07:07:29.462Z,5.20
2022-11-05T07:09:57.743Z,5.20
2022-11-05T07:12:25.927Z,5.20
2022-11-05T07:14:54.093Z,5.30
2022-11-05T07:17:23.361Z,5.30
2022-11-05T07:19:51.609Z,5.40
2022-11-05T07:22:19.872Z,5.50
2022-11-05T07:24:50.249Z,5.40
2022-11-05T07:27:18.515Z,5.50
2022-11-05T07:29:46.719Z,5.50
2022-11-05T07:32:15.092Z,5.60
2022-11-05T07:34:43.332Z,5.70
2022-11-05T07:37:11.598Z,5.70
2022-11-05T07:39:39.907Z,5.70
2022-11-05T07:42:13.146Z,5.80
2022-11-05T07:44:41.810Z,5.90
2022-11-05T07:47:10.094Z,5.90
2022-11-05T07:49:38.277Z,6.00
2022-11-05T07:52:06.736Z,6.10
2022-11-05T07:54:34.956Z,6.20
2022-11-05T07:57:03.238Z,6.20
2022-11-05T07:59:32.790Z,6.30
2022-11-05T08:02:01.303Z,6.30
2022-11-05T08:04:29.679Z,6.40
2022-11-05T08:06:57.942Z,6.40
2022-11-05T08:09:26.272Z,6.50
2022-11-05T08:11:58.545Z,6.50
2022-11-05T08:14:29.891Z,6.60
2022-11-05T08:17:00.044Z,6.60
2022-11-05T08:19:28.369Z,6.70
2022-11-05T08:21:56.588Z,6.80
2022-11-05T08:24:24.815Z,6.90
2022-11-05T08:26:54.095Z,7.10
2022-11-05T08:29:22.279Z,7.10
2022-11-05T08:31:50.470Z,7.20
2022-11-05T08:34:20.098Z,7.30
2022-11-05T08:36:48.294Z,7.40
2022-11-05T08:39:18.621Z,7.50
2022-11-05T08:41:47.119Z,7.60
2022-11-05T08:44:15.330Z,7.80
2022-11-05T08:46:43.506Z,8.00
2022-11-05T08:49:12.039Z,8.20
2022-11-05T08:51:41.663Z,8.40
2022-11-05T08:54:10.097Z,8.60
2022-11-05T08:56:38.381Z,8.80
2022-11-05T08:59:07.164Z,9.00
2022-11-05T09:01:35.792Z,9.10
2022-11-05T09:04:04.463Z,9.20
2022-11-05T09:06:33.723Z,9.30
2022-11-05T09:09:03.370Z,9.50
2022-11-05T09:11:57.066Z,9.70
2022-11-05T09:14:19.859Z,9.90
2022-11-05T09:16:48.155Z,10.10
2022-11-05T09:19:16.454Z,10.30
2022-11-05T09:21:44.739Z,10.50
2022-11-05T09:24:14.450Z,10.60
2022-11-05T09:26:42.659Z,10.80
2022-11-05T09:29:14.376Z,10.80
2022-11-05T09:31:43.200Z,11.00
2022-11-05T09:34:11.500Z,11.10
2022-11-05T09:36:39.777Z,11.10
2022-11-05T09:39:08.079Z,11.20
2022-11-05T09:41:40.339Z,11.40
2022-11-05T09:44:14.665Z,11.50
2022-11-05T09:46:47.028Z,11.60
2022-11-05T09:49:25.471Z,11.60
2022-11-05T09:51:55.351Z,11.50
2022-11-05T09:54:25.704Z,11.70
2022-11-05T09:56:56.600Z,11.70
2022-11-05T09:59:30.187Z,11.80
2022-11-05T10:02:04.328Z,11.80
2022-11-05T10:04:35.275Z,11.80
2022-11-05T10:07:06.875Z,11.90
2022-11-05T10:09:43.014Z,12.00
2022-11-05T10:12:18.306Z,12.20
2022-11-05T10:14:50.542Z,12.40
2022-11-05T10:17:24.371Z,12.40
2022-11-05T10:19:57.182Z,12.60
2022-11-05T10:22:26.539Z,12.70
2022-11-05T10:24:55.989Z,12.70
2022-11-05T10:27:32.864Z,12.70
2022-11-05T10:30:01.569Z,12.90
2022-11-05T10:32:32.459Z,13.00
2022-11-05T10:35:03.298Z,13.10
2022-11-05T10:37:37.012Z,13.20
2022-11-05T10:40:17.095Z,13.40
2022-11-05T10:42:57.673Z,13.40
2022-11-05T10:45:36.859Z,13.40
2022-11-05T10:48:40.723Z,13.40
2022-11-05T10:51:12.712Z,13.50
2022-11-05T10:53:44.285Z,13.50
2022-11-05T10:56:31.841Z,13.50
2022-11-05T10:59:06.718Z,13.50
2022-11-05T11:01:38.239Z,13.50
2022-11-05T11:04:13.968Z,13.50
2022-11-05T11:06:49.679Z,13.40
2022-11-05T11:09:25.220Z,13.40
2022-11-05T11:12:08.815Z,13.40
2022-11-05T11:14:38.498Z,13.30
2022-11-05T11:17:27.040Z,13.20
2022-11-05T11:20:22.074Z,13.20
2022-11-05T11:23:06.001Z,13.30
2022-11-05T11:25:41.449Z,13.50
2022-11-05T11:28:19.981Z,13.40
2022-11-05T11:30:53.012Z,13.50
2022-11-05T11:33:24.565Z,13.50
2022-11-05T11:35:53.020Z,13.70
2022-11-05T11:38:22.825Z,13.80
2022-11-05T11:40:51.639Z,14.00
2022-11-05T11:43:27.856Z,14.20
2022-11-05T11:46:04.882Z,14.30
2022-11-05T11:48:37.390Z,14.50
2022-11-05T11:51:18.855Z,14.50
2022-11-05T11:53:50.008Z,14.60
2022-11-05T11:56:21.287Z,14.50
2022-11-05T11:58:51.617Z,14.50
2022-11-05T12:01:47.763Z,14.40
2022-11-05T12:04:38.446Z,14.40
2022-11-05T12:07:18.413Z,14.40
2022-11-05T12:10:05.057Z,14.50
2022-11-05T12:12:43.608Z,14.40
2022-11-05T12:15:27.305Z,14.50
2022-11-05T12:18:02.367Z,14.50
2022-11-05T12:21:02.626Z,14.70
2022-11-05T12:24:04.738Z,14.80
2022-11-05T12:26:41.881Z,14.90
2022-11-05T12:29:39.259Z,15.00
2022-11-05T12:32:30.790Z,15.10
2022-11-05T12:35:11.766Z,15.10
2022-11-05T12:37:48.315Z,15.00
2022-11-05T12:40:48.877Z,15.00
2022-11-05T12:43:27.147Z,14.80
2022-11-05T12:46:03.460Z,14.80
2022-11-05T12:48:58.169Z,14.80
2022-11-05T12:51:46.609Z,14.80
2022-11-05T12:54:23.681Z,14.60
2022-11-05T12:56:55.307Z,14.70
2022-11-05T12:59:29.515Z,14.60
2022-11-05T13:02:04.431Z,14.70
2022-11-05T13:04:41.229Z,14.70
2022-11-05T13:07:16.562Z,14.70
2022-11-05T13:09:49.230Z,14.70
2022-11-05T13:12:22.143Z,14.70
2022-11-05T13:14:55.943Z,14.80
2022-11-05T13:17:26.978Z,14.80
2022-11-05T13:20:02.065Z,14.80
2022-11-05T13:22:37.452Z,14.90
2022-11-05T13:25:13.788Z,15.00
2022-11-05T13:27:49.265Z,15.10
2022-11-05T13:30:21.027Z,15.10
2022-11-05T13:32:55.759Z,15.10
2022-11-05T13:35:28.131Z,14.90
2022-11-05T13:38:22.718Z,14.70
2022-11-05T13:41:06.800Z,14.50
2022-11-05T13:43:52.260Z,14.30
2022-11-05T13:46:34.894Z,14.30
2022-11-05T13:49:23.294Z,14.20
2022-11-05T13:51:55.110Z,14.10
2022-11-05T13:54:49.708Z,14.20
2022-11-05T13:57:41.679Z,14.20
2022-11-05T14:00:21.031Z,14.30
2022-11-05T14:02:53.409Z,14.40
2022-11-05T14:05:28.043Z,14.30
2022-11-05T14:07:58.075Z,14.30
2022-11-05T14:10:35.125Z,14.40
2022-11-05T14:13:16.171Z,14.50
2022-11-05T14:15:58.480Z,14.40
2022-11-05T14:18:39.319Z,14.40
2022-11-05T14:21:29.719Z,14.20
2022-11-05T14:23:59.018Z,14.20
2022-11-05T14:26:30.070Z,14.10
2022-11-05T14:29:26.359Z,14.10
2022-11-05T14:32:08.866Z,14.00
2022-11-05T14:34:45.613Z,14.00
2022-11-05T14:37:29.286Z,14.10
2022-11-05T14:40:01.096Z,14.00
2022-11-05T14:42:31.841Z,14.00
2022-11-05T14:45:04.618Z,13.90
2022-11-05T14:47:36.907Z,13.90
2022-11-05T14:50:11.570Z,13.80
2022-11-05T14:52:50.952Z,13.70
2022-11-05T14:55:28.462Z,13.70
2022-11-05T14:58:29.924Z,13.60
2022-11-05T15:00:59.534Z,13.50
2022-11-05T15:04:17.129Z,13.40
2022-11-05T15:07:14.680Z,13.40
2022-11-05T15:09:48.503Z,13.40
2022-11-05T15:12:23.148Z,13.30
2022-11-05T15:14:58.737Z,13.20
2022-11-05T15:17:31.341Z,13.20
2022-11-05T15:20:08.894Z,13.10
2022-11-05T15:22:40.671Z,13.10
2022-11-05T15:25:18.775Z,13.00
2022-11-05T15:28:00.698Z,12.80
2022-11-05T15:30:30.794Z,12.70
2022-11-05T15:33:10.249Z,12.60
2022-11-05T15:35:41.278Z,12.50
2022-11-05T15:38:30.318Z,12.40
2022-11-05T15:41:00.569Z,12.40
2022-11-05T15:43:29.178Z,12.30
2022-11-05T15:46:07.433Z,12.20
2022-11-05T15:48:36.914Z,12.10
2022-11-05T15:51:05.910Z,12.10
2022-11-05T15:54:08.350Z,12.00
2022-11-05T15:56:30.337Z,12.00
2022-11-05T15:59:01.843Z,11.90
2022-11-05T16:01:34.411Z,11.90
2022-11-05T16:04:11.597Z,12.00
2022-11-05T16:06:41.846Z,11.70
2022-11-05T16:09:22.098Z,11.80
2022-11-05T16:11:54.313Z,11.70
2022-11-05T16:14:22.634Z,11.60
2022-11-05T16:16:52.298Z,11.50
2022-11-05T16:19:40.472Z,11.50
2022-11-05T16:22:09.420Z,11.40
2022-11-05T16:24:37.805Z,11.40
2022-11-05T16:27:06.917Z,11.30
2022-11-05T16:29:36.919Z,11.20
2022-11-05T16:32:14.615Z,11.20
2022-11-05T16:34:48.599Z,11.10
2022-11-05T16:37:18.777Z,11.10
2022-11-05T16:39:47.148Z,11.10
2022-11-05T16:42:39.050Z,11.00
2022-11-05T16:45:09.295Z,11.10
2022-11-05T16:47:38.989Z,11.10
2022-11-05T16:50:18.571Z,11.10
2022-11-05T16:52:47.320Z,11.10
2022-11-05T16:55:16.722Z,11.10
2022-11-05T16:57:47.435Z,11.00
2022-11-05T17:00:18.290Z,11.00
2022-11-05T17:02:48.951Z,11.00
2022-11-05T17:05:20.694Z,10.90
2022-11-05T17:07:48.989Z,11.00
2022-11-05T17:10:17.563Z,11.00
2022-11-05T17:12:46.667Z,11.00
2022-11-05T17:15:24.525Z,10.90
2022-11-05T17:17:55.464Z,10.90
2022-11-05T17:20:43.147Z,10.90
2022-11-05T17:23:13.514Z,10.80
2022-11-05T17:25:43.080Z,10.90
2022-11-05T17:28:12.155Z,10.80
2022-11-05T17:30:41.949Z,10.80
2022-11-05T17:33:12.777Z,10.90
2022-11-05T17:35:42.031Z,10.80
2022-11-05T17:38:11.027Z,10.70
2022-11-05T17:40:39.827Z,10.60
2022-11-05T17:43:09.008Z,10.60
2022-11-05T17:45:42.971Z,10.60
2022-11-05T17:48:12.945Z,10.50
2022-11-05T17:50:42.724Z,10.50
2022-11-05T17:53:12.084Z,10.50
2022-11-05T17:55:41.567Z,10.50
2022-11-05T17:58:09.851Z,10.60
2022-11-05T18:00:38.814Z,10.50
2022-11-05T18:03:07.111Z,10.40
2022-11-05T18:05:37.847Z,10.50
2022-11-05T18:08:06.904Z,10.50
2022-11-05T18:10:37.700Z,10.40
2022-11-05T18:13:05.987Z,10.40
2022-11-05T18:15:35.544Z,10.40
2022-11-05T18:18:03.848Z,10.40
2022-11-05T18:20:32.403Z,10.30
2022-11-05T18:23:02.109Z,10.30
2022-11-05T18:25:30.482Z,10.30
2022-11-05T18:27:58.696Z,10.30
2022-11-05T18:30:26.999Z,10.20
2022-11-05T18:32:55.232Z,10.30
2022-11-05T18:35:23.492Z,10.20
2022-11-05T18:37:51.801Z,10.30
2022-11-05T18:40:21.414Z,10.30
2022-11-05T18:42:49.678Z,10.30
2022-11-05T18:45:17.966Z,10.30
2022-11-05T18:47:46.268Z,10.30
2022-11-05T18:50:15.557Z,10.50
2022-11-05T18:52:43.754Z,10.40
2022-11-05T18:55:12.090Z,10.50
2022-11-05T18:57:41.594Z,10.50
2022-11-05T19:00:11.097Z,10.50
2022-11-05T19:02:39.677Z,10.50
2022-11-05T19:07:56.898Z,10.50
2022-11-05T19:10:25.253Z,10.50
2022-11-05T19:12:54.845Z,10.60
2022-11-05T19:15:23.288Z,10.40
2022-11-05T19:17:51.525Z,10.40
2022-11-05T19:20:19.929Z,10.40
2022-11-05T19:22:48.439Z,10.30
2022-11-05T19:25:16.761Z,10.30
2022-11-05T19:27:45.083Z,10.30
2022-11-05T19:30:15.049Z,10.30
2022-11-05T19:32:43.363Z,10.30
2022-11-05T19:35:11.646Z,10.30
2022-11-05T19:37:39.894Z,10.30
2022-11-05T19:40:09.944Z,10.40
2022-11-05T19:42:38.216Z,10.40
2022-11-05T19:45:30.092Z,10.40
2022-11-05T19:47:57.341Z,10.40
2022-11-05T19:50:25.743Z,10.40
2022-11-05T19:52:54.056Z,10.40
2022-11-05T19:55:22.321Z,10.50
2022-11-05T19:57:50.937Z,10.50
2022-11-05T20:00:19.707Z,10.60
2022-11-05T20:02:48.181Z,10.50
2022-11-05T20:05:18.301Z,10.50
2022-11-05T20:07:52.261Z,10.50
2022-11-05T20:10:21.203Z,10.40
2022-11-05T20:12:49.454Z,10.40
2022-11-05T20:15:19.598Z,10.50
2022-11-05T20:17:51.642Z,10.50
2022-11-05T20:20:21.499Z,10.40
2022-11-05T20:22:52.038Z,10.40
2022-11-05T20:25:20.252Z,10.50
2022-11-05T20:27:48.526Z,10.50
2022-11-05T20:30:16.749Z,10.40
2022-11-05T20:32:45.011Z,10.30
2022-11-05T20:35:13.345Z,10.20
2022-11-05T20:37:43.054Z,10.20
2022-11-05T20:40:14.000Z,10.10
2022-11-05T20:42:42.849Z,10.00
2022-11-05T20:45:11.936Z,9.90
2022-11-05T20:47:40.191Z,9.90
2022-11-05T20:50:10.144Z,9.90
2022-11-05T20:52:38.390Z,9.80
2022-11-05T20:55:09.656Z,9.80
2022-11-05T20:57:38.404Z,9.60
2022-11-05T21:00:08.567Z,9.60
2022-11-05T21:02:38.917Z,9.50
2022-11-05T21:05:08.405Z,9.50
2022-11-05T21:07:36.632Z,9.50
2022-11-05T21:10:05.536Z,9.50
2022-11-05T21:12:35.143Z,9.40
2022-11-05T21:15:03.464Z,9.40
2022-11-05T21:17:31.661Z,9.40
2022-11-05T21:19:59.876Z,9.40
2022-11-05T21:22:28.150Z,9.30
2022-11-05T21:24:57.139Z,9.30
2022-11-05T21:27:25.632Z,9.40
2022-11-05T21:29:55.364Z,9.40
2022-11-05T21:32:23.619Z,9.40
2022-11-05T21:34:51.887Z,9.40
2022-11-05T21:37:20.376Z,9.40
2022-11-05T21:39:48.519Z,9.50
2022-11-05T21:42:16.742Z,9.50
2022-11-05T21:44:45.145Z,9.60
2022-11-05T21:47:14.726Z,9.50
2022-11-05T21:49:43.010Z,9.40
2022-11-05T21:52:29.825Z,9.50
2022-11-05T21:55:15.378Z,9.40
2022-11-05T21:58:01.307Z,9.40
2022-11-05T22:00:30.424Z,9.40
2022-11-05T22:03:00.481Z,9.40
2022-11-05T22:05:29.114Z,9.40
2022-11-05T22:07:57.712Z,9.30
2022-11-05T22:10:26.091Z,9.30
2022-11-05T22:12:54.484Z,9.30
2022-11-05T22:15:22.811Z,9.40
2022-11-05T22:17:51.403Z,9.30
2022-11-05T22:20:21.074Z,9.30
2022-11-05T22:22:49.595Z,9.40
2022-11-05T22:25:17.981Z,9.20
2022-11-05T22:27:46.173Z,9.20
2022-11-05T22:30:15.431Z,9.20
2022-11-05T22:32:43.693Z,9.30
2022-11-05T22:35:12.302Z,9.20
2022-11-05T22:37:41.862Z,9.20
2022-11-05T22:40:10.821Z,9.20
2022-11-05T22:42:39.103Z,9.20
2022-11-05T22:45:08.375Z,9.20
2022-11-05T22:47:36.974Z,9.10
2022-11-05T22:50:06.179Z,9.10
2022-11-05T22:52:34.439Z,9.10
2022-11-05T22:55:06.196Z,9.10
2022-11-05T22:57:34.621Z,9.10
2022-11-05T23:00:04.672Z,9.10
2022-11-05T23:02:34.117Z,9.20
2022-11-05T23:05:02.441Z,9.20
2022-11-05T23:07:48.032Z,9.30
2022-11-05T23:10:35.318Z,9.40
2022-11-05T23:13:04.304Z,9.40
2022-11-05T23:15:49.767Z,9.40
2022-11-05T23:18:40.825Z,9.40
2022-11-05T23:21:26.657Z,9.40
2022-11-05T23:24:06.684Z,9.30
2022-11-05T23:26:53.969Z,9.20
2022-11-05T23:29:25.349Z,9.20
2022-11-05T23:32:11.123Z,9.20
2022-11-05T23:34:39.810Z,9.20
2022-11-05T23:37:26.224Z,9.30
2022-11-05T23:39:54.784Z,9.30
2022-11-05T23:42:41.829Z,9.30
2022-11-05T23:45:28.994Z,9.30
2022-11-05T23:48:15.059Z,9.30
2022-11-05T23:50:44.735Z,9.20
2022-11-05T23:53:13.139Z,9.20
2022-11-05T23:55:41.403Z,9.20
2022-11-05T23:58:12.204Z,9.20
